Time;durP1;ratioP1;P1;durP2;ratioP2;P2;SDS_P1;SDS_P2;PMS_P1;PMS_P2;Temp;Humidity;BMP_temperature;BMP_pressure;BME280_temperature;BME280_humidity;BME280_pressure;Samples;Min_cycle;Max_cycle;Signal;HPM_P1;HPM_P2
2022/11/04 00:01:30;;;;;;;1.90;1.10;;;21.40;57.90;;;;;;5049257;28;20024;-40
2022/11/04 00:03:56;;;;;;;2.03;1.30;;;21.40;57.90;;;;;;5054246;28;20082;-39
2022/11/04 00:06:22;;;;;;;1.40;1.30;;;21.30;57.80;;;;;;5051341;28;20021;-39
2022/11/04 00:08:52;;;;;;;1.90;1.42;;;21.40;57.80;;;;;;5041760;28;20037;-39
2022/11/04 00:14:05;;;;;;;1.88;1.02;;;21.40;57.80;;;;;;5044765;28;20024;-39
2022/11/04 00:19:15;;;;;;;1.73;0.90;;;21.30;57.80;;;;;;5046466;28;20039;-39
2022/11/04 00:29:57;;;;;;;1.83;1.42;;;21.30;57.70;;;;;;5044820;28;20532;-39
2022/11/04 00:35:10;;;;;;;1.73;1.10;;;21.30;57.70;;;;;;5049045;28;20535;-40
2022/11/04 00:37:40;;;;;;;9.18;1.65;;;21.30;57.70;;;;;;5053179;28;20378;-39
2022/11/04 00:40:07;;;;;;;2.08;1.20;;;21.30;57.70;;;;;;5052388;28;20025;-47
2022/11/04 00:42:33;;;;;;;1.45;1.05;;;21.30;57.70;;;;;;5052562;28;20045;-39
2022/11/04 00:44:59;;;;;;;2.00;1.35;;;21.30;57.80;;;;;;5052610;28;20098;-39
2022/11/04 00:47:24;;;;;;;2.38;1.30;;;21.30;57.70;;;;;;5052357;28;20017;-40
2022/11/04 00:49:50;;;;;;;1.38;0.90;;;21.30;57.70;;;;;;5051697;28;20351;-40
2022/11/04 00:52:16;;;;;;;1.27;0.70;;;21.30;57.80;;;;;;5041962;28;20098;-39
2022/11/04 00:54:42;;;;;;;2.22;0.93;;;21.30;57.70;;;;;;5052800;28;20017;-41
2022/11/04 00:57:14;;;;;;;1.30;0.93;;;21.30;57.70;;;;;;5051962;28;20056;-49
2022/11/04 00:59:40;;;;;;;1.85;0.95;;;21.30;57.70;;;;;;5052464;28;20020;-40
2022/11/04 01:02:07;;;;;;;1.50;1.25;;;21.30;57.60;;;;;;5051939;28;20021;-48
2022/11/04 01:04:33;;;;;;;1.45;1.02;;;21.30;57.60;;;;;;5052177;28;20021;-40
2022/11/04 01:06:59;;;;;;;1.27;1.10;;;21.30;57.70;;;;;;5044018;28;20025;-40
2022/11/04 01:09:24;;;;;;;1.60;0.90;;;21.30;57.60;;;;;;5047619;28;20095;-40
2022/11/04 01:11:50;;;;;;;1.75;0.90;;;21.30;57.70;;;;;;5052175;28;20484;-39
2022/11/04 01:14:16;;;;;;;1.08;0.82;;;21.30;57.60;;;;;;5051470;28;20025;-40
2022/11/04 01:16:42;;;;;;;0.88;0.70;;;21.30;57.60;;;;;;5052901;28;20017;-40
2022/11/04 01:19:08;;;;;;;1.30;0.95;;;21.30;57.60;;;;;;5051746;28;20481;-48
2022/11/04 01:21:33;;;;;;;1.30;0.82;;;21.30;57.70;;;;;;5046567;28;20033;-39
2022/11/04 01:24:00;;;;;;;1.20;1.10;;;21.30;57.70;;;;;;5051685;28;20033;-41
2022/11/04 01:26:27;;;;;;;1.63;1.00;;;21.30;57.60;;;;;;5040685;28;20277;-39
2022/11/04 01:28:54;;;;;;;1.20;0.80;;;21.30;57.60;;;;;;5052224;28;20052;-40
2022/11/04 01:31:22;;;;;;;1.00;0.80;;;21.30;57.60;;;;;;5050869;28;20024;-39
2022/11/04 01:33:49;;;;;;;1.90;1.45;;;21.30;57.60;;;;;;5051512;28;20090;-39
2022/11/04 01:36:15;;;;;;;1.10;0.70;;;21.30;57.60;;;;;;5050685;28;20017;-39
2022/11/04 01:38:41;;;;;;;1.33;0.82;;;21.30;57.60;;;;;;5051978;28;20032;-40
2022/11/04 01:41:07;;;;;;;1.50;0.82;;;21.30;57.60;;;;;;5050277;28;20021;-48
2022/11/04 01:43:51;;;;;;;1.60;1.13;;;21.30;57.60;;;;;;5048056;28;20028;-39
2022/11/04 01:46:40;;;;;;;1.88;0.80;;;21.30;57.60;;;;;;5051013;28;20500;-39
2022/11/04 01:49:32;;;;;;;0.75;0.60;;;21.30;57.60;;;;;;5051179;28;20037;-50
2022/11/04 01:52:25;;;;;;;1.35;0.82;;;21.30;57.60;;;;;;5038805;28;20052;-40
2022/11/04 01:54:54;;;;;;;1.25;0.80;;;21.30;57.60;;;;;;5039312;28;20067;-40
2022/11/04 01:57:27;;;;;;;1.00;0.70;;;21.30;57.60;;;;;;5050146;28;20385;-39
2022/11/04 01:59:52;;;;;;;2.15;0.90;;;21.30;57.60;;;;;;5040311;28;20116;-40
2022/11/04 02:02:18;;;;;;;1.13;0.75;;;21.30;57.70;;;;;;5049350;28;20517;-40
2022/11/04 02:04:44;;;;;;;2.15;1.02;;;21.30;57.50;;;;;;5049950;28;20021;-40
2022/11/04 02:07:10;;;;;;;0.70;0.60;;;21.30;57.60;;;;;;5031795;28;20432;-39
2022/11/04 02:09:38;;;;;;;0.82;0.70;;;21.30;57.60;;;;;;5049561;28;20458;-40
2022/11/04 02:14:49;;;;;;;1.70;1.15;;;21.30;57.60;;;;;;5049867;28;20816;-39
2022/11/04 02:17:17;;;;;;;1.50;0.85;;;21.30;57.60;;;;;;5046576;28;20049;-40
2022/11/04 02:19:55;;;;;;;1.35;0.95;;;21.30;57.60;;;;;;5051222;28;20020;-40
2022/11/04 02:22:34;;;;;;;1.00;0.50;;;21.30;57.60;;;;;;5044010;28;20521;-40
2022/11/04 02:25:32;;;;;;;1.10;0.90;;;21.30;57.60;;;;;;5051400;28;20462;-39
2022/11/04 02:28:03;;;;;;;0.75;0.70;;;21.30;57.50;;;;;;5051711;28;20074;-39
2022/11/04 02:30:41;;;;;;;1.17;0.98;;;21.30;57.50;;;;;;5057283;28;20029;-45
2022/11/04 02:33:26;;;;;;;0.98;0.80;;;21.30;57.50;;;;;;5039994;28;20041;-49
2022/11/04 02:36:04;;;;;;;0.70;0.63;;;21.30;57.50;;;;;;5048701;28;20021;-39
2022/11/04 02:38:35;;;;;;;1.50;0.70;;;21.20;57.50;;;;;;5050755;28;20596;-39
2022/11/04 02:41:16;;;;;;;1.33;0.88;;;21.30;57.50;;;;;;5050818;28;20095;-40
2022/11/04 02:44:00;;;;;;;1.25;0.73;;;21.30;57.50;;;;;;5051477;28;20399;-39
2022/11/04 02:46:35;;;;;;;1.20;0.80;;;21.20;57.50;;;;;;5050261;28;20056;-39
2022/11/04 02:49:27;;;;;;;0.88;0.73;;;21.30;57.50;;;;;;5052986;28;20071;-39
2022/11/04 02:52:11;;;;;;;0.70;0.60;;;21.30;57.50;;;;;;5048487;28;20111;-40
2022/11/04 02:54:48;;;;;;;1.20;0.60;;;21.20;57.40;;;;;;5054619;28;20180;-40
2022/11/04 02:57:19;;;;;;;1.25;0.60;;;21.20;57.40;;;;;;5054484;28;20017;-39
2022/11/04 02:59:49;;;;;;;1.15;0.80;;;21.30;57.50;;;;;;5041936;28;20036;-44
2022/11/04 03:02:21;;;;;;;0.80;0.70;;;21.30;57.40;;;;;;5054365;28;20025;-40
2022/11/04 03:04:51;;;;;;;2.45;0.70;;;21.20;57.30;;;;;;5054547;28;20032;-39
2022/11/04 03:07:23;;;;;;;0.60;0.60;;;21.30;57.40;;;;;;5044426;28;20453;-39
2022/11/04 03:09:52;;;;;;;0.65;0.57;;;21.30;57.40;;;;;;5050436;28;20032;-39
2022/11/04 03:12:23;;;;;;;0.70;0.70;;;21.30;57.40;;;;;;5054129;28;20028;-39
2022/11/04 03:14:54;;;;;;;1.40;0.65;;;21.30;57.30;;;;;;5054361;28;20109;-40
2022/11/04 03:17:26;;;;;;;1.67;0.70;;;21.30;57.40;;;;;;5053932;28;20048;-39
2022/11/04 03:19:53;;;;;;;;;;;21.20;57.30;;;;;;5054976;28;20025;-40
2022/11/04 03:22:24;;;;;;;1.42;0.70;;;21.20;57.30;;;;;;5053306;28;19911;-39
2022/11/04 03:24:50;;;;;;;0.82;0.70;;;21.20;57.30;;;;;;5042131;28;20021;-39
2022/11/04 03:27:18;;;;;;;1.13;0.65;;;21.20;57.20;;;;;;5054044;28;20036;-40
2022/11/04 03:30:10;;;;;;;1.13;0.93;;;21.30;57.40;;;;;;5055146;28;20040;-40
2022/11/04 03:33:05;;;;;;;0.98;0.60;;;21.30;57.30;;;;;;5056188;28;20041;-39
2022/11/04 03:35:31;;;;;;;0.52;0.52;;;21.30;57.20;;;;;;5011189;28;20090;-40
2022/11/04 03:37:57;;;;;;;1.08;0.65;;;21.30;57.20;;;;;;5054774;28;20021;-39
2022/11/04 03:40:24;;;;;;;0.88;0.68;;;21.30;57.30;;;;;;5051377;28;20021;-40
2022/11/04 03:43:19;;;;;;;1.27;0.80;;;21.20;57.20;;;;;;5054778;28;20040;-39
2022/11/04 03:45:45;;;;;;;0.47;0.47;;;21.20;57.20;;;;;;5049339;28;20029;-40
2022/11/04 03:48:11;;;;;;;1.17;0.70;;;21.30;57.20;;;;;;5035500;28;20025;-40
2022/11/04 03:50:42;;;;;;;1.42;0.80;;;21.20;57.20;;;;;;5053866;28;20078;-39
2022/11/04 03:53:09;;;;;;;0.60;0.57;;;21.20;57.20;;;;;;5053529;28;20028;-43
2022/11/04 03:56:01;;;;;;;0.90;0.63;;;21.20;57.20;;;;;;5053487;28;20104;-39
2022/11/04 03:58:39;;;;;;;;;;;21.20;57.20;;;;;;5047100;28;20245;-39
2022/11/04 04:01:35;;;;;;;0.52;0.40;;;21.30;57.20;;;;;;5052651;28;19936;-49
2022/11/04 04:04:22;;;;;;;1.55;0.57;;;21.20;57.20;;;;;;5053744;28;20014;-40
2022/11/04 04:06:50;;;;;;;0.80;0.50;;;21.20;57.80;;;;;;5053554;28;20047;-39
2022/11/04 04:09:21;;;;;;;0.70;0.52;;;21.20;57.10;;;;;;5053080;28;20033;-39
2022/11/04 04:11:59;;;;;;;0.70;0.70;;;21.20;57.20;;;;;;5054261;28;20074;-40
2022/11/04 04:14:38;;;;;;;0.90;0.57;;;21.20;57.10;;;;;;5050937;28;20086;-40
2022/11/04 04:17:33;;;;;;;2.53;0.63;;;21.20;57.20;;;;;;5042690;28;20031;-47
2022/11/04 04:20:03;;;;;;;0.82;0.50;;;21.20;57.80;;;;;;5033053;28;20402;-40
2022/11/04 04:22:35;;;;;;;1.02;0.75;;;21.20;57.10;;;;;;5053049;28;20055;-40
2022/11/04 04:27:51;;;;;;;2.10;0.60;;;21.20;57.10;;;;;;5053560;28;20063;-39
2022/11/04 04:30:17;;;;;;;1.02;0.70;;;21.20;57.10;;;;;;5051073;28;20032;-40
2022/11/04 04:32:49;;;;;;;0.80;0.50;;;21.20;57.10;;;;;;5042305;28;20040;-40
2022/11/04 04:46:28;;;;;;;0.50;0.50;;;21.20;57.10;;;;;;5051588;28;20090;-40
2022/11/04 04:48:53;;;;;;;1.10;0.52;;;21.20;57.10;;;;;;5047546;28;20124;-40
2022/11/04 04:51:20;;;;;;;2.05;0.60;;;21.20;57.00;;;;;;5043145;28;20517;-40
2022/11/04 04:53:45;;;;;;;1.20;0.60;;;21.20;57.00;;;;;;5052950;28;20554;-40
2022/11/04 04:56:11;;;;;;;0.47;0.45;;;21.20;57.00;;;;;;5051987;28;20025;-40
2022/11/04 04:58:36;;;;;;;0.90;0.60;;;21.20;56.90;;;;;;5053207;28;20446;-41
2022/11/04 05:01:03;;;;;;;0.55;0.45;;;21.20;56.90;;;;;;5052558;28;20029;-40
2022/11/04 05:03:29;;;;;;;0.90;0.60;;;21.20;56.90;;;;;;5052147;28;20055;-40
2022/11/04 05:05:54;;;;;;;0.57;0.40;;;21.20;56.90;;;;;;5046248;28;20107;-41
2022/11/04 05:08:20;;;;;;;0.40;0.40;;;21.20;56.90;;;;;;5049766;28;20029;-40
2022/11/04 05:10:45;;;;;;;0.75;0.50;;;21.20;56.90;;;;;;5052496;28;20441;-40
2022/11/04 05:13:28;;;;;;;1.13;0.55;;;21.20;57.50;;;;;;5052032;28;20035;-40
2022/11/04 05:16:02;;;;;;;0.50;0.40;;;21.20;56.90;;;;;;5052489;28;20021;-39
2022/11/04 05:18:27;;;;;;;2.80;0.50;;;21.20;56.80;;;;;;5051854;28;20033;-39
2022/11/04 05:20:53;;;;;;;2.53;0.57;;;21.20;56.80;;;;;;5051602;28;20032;-39
2022/11/04 05:23:18;;;;;;;0.40;0.30;;;21.20;56.80;;;;;;5043034;28;20032;-39
2022/11/04 05:25:44;;;;;;;0.60;0.60;;;21.20;56.80;;;;;;5045857;28;20450;-39
2022/11/04 05:28:10;;;;;;;1.45;0.55;;;21.20;56.80;;;;;;5047733;28;20029;-40
2022/11/04 05:30:36;;;;;;;1.50;0.60;;;21.20;56.80;;;;;;5052340;28;20112;-39
2022/11/04 05:33:01;;;;;;;0.57;0.38;;;21.20;56.80;;;;;;5051828;28;20032;-39
2022/11/04 05:35:27;;;;;;;1.33;0.70;;;21.20;56.80;;;;;;5050787;28;20863;-40
2022/11/04 05:37:55;;;;;;;0.73;0.50;;;21.20;56.80;;;;;;5051845;28;20476;-40
2022/11/04 05:40:21;;;;;;;2.08;0.40;;;21.20;56.80;;;;;;5036720;28;20367;-41
2022/11/04 05:42:46;;;;;;;0.40;0.40;;;21.20;56.80;;;;;;5051747;28;20021;-40
2022/11/04 05:45:12;;;;;;;0.80;0.70;;;21.20;56.80;;;;;;5050963;28;20058;-40
2022/11/04 05:47:37;;;;;;;0.90;0.70;;;21.20;56.70;;;;;;5052160;28;20445;-40
2022/11/04 05:50:03;;;;;;;0.52;0.43;;;21.20;56.80;;;;;;5051606;28;20025;-40
2022/11/04 05:52:29;;;;;;;0.40;0.40;;;21.20;56.80;;;;;;5051657;28;20462;-40
2022/11/04 05:54:55;;;;;;;0.85;0.52;;;21.20;56.70;;;;;;5050465;28;20025;-40
2022/11/04 05:57:20;;;;;;;0.70;0.50;;;21.20;56.70;;;;;;5049447;28;20130;-40
2022/11/04 05:59:46;;;;;;;0.60;0.40;;;21.20;56.70;;;;;;5051328;28;20031;-40
2022/11/04 06:02:11;;;;;;;0.65;0.40;;;21.20;56.60;;;;;;5057705;28;20029;-40
2022/11/04 06:04:37;;;;;;;1.58;0.50;;;21.20;56.70;;;;;;5051118;28;20029;-40
2022/11/04 06:07:02;;;;;;;1.05;0.73;;;21.20;56.70;;;;;;5051245;28;20021;-40
2022/11/04 06:09:40;;;;;;;0.50;0.50;;;21.20;56.60;;;;;;5050637;28;20773;-40
2022/11/04 06:12:13;;;;;;;0.45;0.45;;;21.20;56.70;;;;;;5051476;28;20029;-47
2022/11/04 06:14:39;;;;;;;1.10;0.50;;;21.20;56.60;;;;;;5055442;28;20021;-40
2022/11/04 06:17:05;;;;;;;0.40;0.40;;;21.20;56.50;;;;;;5055749;28;20024;-46
2022/11/04 06:19:31;;;;;;;0.95;0.50;;;21.20;56.50;;;;;;5052849;28;20021;-39
2022/11/04 06:21:57;;;;;;;0.55;0.38;;;21.20;56.60;;;;;;5057348;28;20459;-40
2022/11/04 06:24:22;;;;;;;0.40;0.40;;;21.20;56.50;;;;;;5050612;28;20017;-39
2022/11/04 06:26:48;;;;;;;0.85;0.50;;;21.20;56.50;;;;;;5057771;28;20033;-39
2022/11/04 06:29:13;;;;;;;0.68;0.40;;;21.20;56.60;;;;;;5056132;28;20043;-39
2022/11/04 06:31:39;;;;;;;1.10;0.43;;;21.20;56.50;;;;;;5059911;28;20457;-41
2022/11/04 06:34:05;;;;;;;1.00;0.68;;;21.20;56.60;;;;;;5060481;28;20367;-47
2022/11/04 06:36:30;;;;;;;0.35;0.30;;;21.20;56.60;;;;;;5053519;28;20033;-40
2022/11/04 06:38:56;;;;;;;0.63;0.50;;;21.20;56.50;;;;;;5052296;28;20033;-41
2022/11/04 06:41:22;;;;;;;0.47;0.40;;;21.20;56.60;;;;;;5050052;28;20062;-39
2022/11/04 06:43:47;;;;;;;0.70;0.40;;;21.30;56.70;;;;;;5051222;28;20033;-40
2022/11/04 06:46:36;;;;;;;0.65;0.50;;;21.20;57.40;;;;;;5049453;28;20032;-40
2022/11/04 06:49:02;;;;;;;0.47;0.35;;;21.20;56.80;;;;;;5042934;28;20025;-40
2022/11/04 06:51:28;;;;;;;0.50;0.50;;;21.20;57.40;;;;;;5050388;28;20036;-40
2022/11/04 06:53:53;;;;;;;0.82;0.40;;;21.20;56.70;;;;;;5051141;28;20025;-40
2022/11/04 06:56:19;;;;;;;2.20;0.70;;;21.20;56.80;;;;;;5055423;28;20388;-39
2022/11/04 06:58:48;;;;;;;2.00;0.90;;;21.20;56.90;;;;;;5058238;28;20028;-39
2022/11/04 07:01:15;;;;;;;5.32;1.10;;;21.20;56.90;;;;;;5060892;28;20469;-40
2022/11/04 07:03:41;;;;;;;3.47;0.70;;;21.20;57.00;;;;;;5044020;28;20053;-41
2022/11/04 07:06:08;;;;;;;2.83;0.73;;;21.30;57.10;;;;;;5044294;28;20521;-47
2022/11/04 07:08:34;;;;;;;6.03;1.02;;;21.20;57.00;;;;;;5051732;28;20036;-40
2022/11/04 07:11:00;;;;;;;3.05;0.73;;;21.20;57.10;;;;;;5059986;28;20029;-40
2022/11/04 07:13:26;;;;;;;7.43;2.03;;;21.20;57.10;;;;;;5061516;28;20024;-40
2022/11/04 07:15:51;;;;;;;1.98;1.13;;;21.20;57.10;;;;;;5050682;28;20032;-46
2022/11/04 07:18:17;;;;;;;3.35;0.60;;;21.20;57.10;;;;;;5050374;28;20017;-40
2022/11/04 07:20:42;;;;;;;2.97;0.63;;;21.20;57.20;;;;;;5050116;28;20075;-40
2022/11/04 07:23:08;;;;;;;2.58;0.80;;;21.20;57.10;;;;;;5041951;28;20025;-47
2022/11/04 07:25:34;;;;;;;2.95;0.88;;;21.20;52.70;;;;;;5050861;28;20143;-41
2022/11/04 07:28:02;;;;;;;4.03;1.00;;;21.20;51.70;;;;;;5051246;28;20024;-40
2022/11/04 07:30:28;;;;;;;2.33;0.70;;;21.10;51.70;;;;;;5055638;28;20036;-40
2022/11/04 07:32:53;;;;;;;2.85;1.77;;;21.00;51.50;;;;;;5050749;28;20048;-43
2022/11/04 07:35:19;;;;;;;2.28;0.50;;;21.00;49.90;;;;;;5050880;28;20024;-40
2022/11/04 07:37:45;;;;;;;3.30;0.82;;;21.10;50.90;;;;;;5047005;28;20021;-39
2022/11/04 07:40:11;;;;;;;1.33;0.95;;;21.10;52.60;;;;;;5048836;28;20469;-40
2022/11/04 07:42:36;;;;;;;2.92;0.60;;;21.20;53.40;;;;;;5054536;28;20028;-40
2022/11/04 07:45:02;;;;;;;3.42;0.98;;;21.20;54.00;;;;;;5054272;28;20021;-41
2022/11/04 07:47:29;;;;;;;0.90;0.60;;;21.20;53.80;;;;;;5053574;28;20509;-40
2022/11/04 07:49:55;;;;;;;1.02;0.60;;;20.90;49.80;;;;;;5053830;28;20033;-40
2022/11/04 07:52:21;;;;;;;4.63;1.08;;;20.50;48.10;;;;;;5053645;28;20032;-40
2022/11/04 07:54:46;;;;;;;2.03;0.50;;;20.10;49.10;;;;;;5028641;28;20422;-39
2022/11/04 07:57:12;;;;;;;1.77;0.70;;;20.00;49.30;;;;;;5044469;28;20013;-39
2022/11/04 07:59:38;;;;;;;2.08;0.80;;;19.90;49.10;;;;;;5054072;28;20381;-41
2022/11/04 08:02:04;;;;;;;3.80;0.90;;;20.10;49.90;;;;;;5053933;28;20021;-42
2022/11/04 08:04:30;;;;;;;2.65;1.05;;;20.40;49.30;;;;;;5053096;28;20074;-39
2022/11/04 08:06:56;;;;;;;13.85;4.63;;;20.70;50.60;;;;;;5054388;28;20033;-39
2022/11/04 08:09:22;;;;;;;15.80;4.72;;;20.80;51.90;;;;;;5052225;28;20044;-40
2022/11/04 08:11:48;;;;;;;11.20;3.22;;;20.90;52.80;;;;;;5053117;28;20052;-40
2022/11/04 08:14:13;;;;;;;14.88;3.72;;;21.00;53.20;;;;;;5049414;28;20098;-40
2022/11/04 08:16:39;;;;;;;12.10;3.05;;;21.00;53.40;;;;;;5053493;28;20100;-40
2022/11/04 08:19:05;;;;;;;14.82;3.05;;;21.00;53.40;;;;;;5053472;28;20099;-49
2022/11/04 08:21:32;;;;;;;15.77;3.25;;;21.00;53.90;;;;;;5052549;28;20377;-42
2022/11/04 08:23:58;;;;;;;10.80;3.90;;;21.00;53.70;;;;;;5053932;28;20151;-40
2022/11/04 08:26:24;;;;;;;6.13;1.70;;;21.00;53.90;;;;;;5052430;28;20128;-40
2022/11/04 08:28:51;;;;;;;13.80;2.67;;;21.10;54.20;;;;;;5044922;28;20029;-43
2022/11/04 08:31:24;;;;;;;6.90;2.35;;;21.00;54.30;;;;;;5042747;28;20069;-40
2022/11/04 08:33:50;;;;;;;10.07;2.63;;;21.10;54.40;;;;;;5053184;28;20037;-40
2022/11/04 08:36:19;;;;;;;10.10;2.05;;;21.10;54.60;;;;;;5052289;28;20021;-39
2022/11/04 08:38:45;;;;;;;4.93;1.92;;;21.10;54.50;;;;;;5053466;28;20021;-40
2022/11/04 08:41:13;;;;;;;6.88;1.90;;;21.10;54.60;;;;;;5051773;28;20025;-40
2022/11/04 08:43:39;;;;;;;4.82;1.90;;;21.10;54.90;;;;;;5053380;28;20025;-41
2022/11/04 08:46:07;;;;;;;5.38;2.08;;;21.10;55.00;;;;;;5053158;28;20029;-47
2022/11/04 08:48:35;;;;;;;6.57;1.60;;;21.10;55.30;;;;;;5049569;28;20025;-39
2022/11/04 08:51:01;;;;;;;5.50;1.55;;;21.10;55.20;;;;;;5052640;28;20373;-39
2022/11/04 08:53:27;;;;;;;6.15;1.83;;;21.10;55.20;;;;;;5051918;28;20083;-39
2022/11/04 08:55:53;;;;;;;5.38;1.95;;;21.10;55.30;;;;;;5053074;28;20415;-39
2022/11/04 08:58:19;;;;;;;8.80;2.20;;;21.10;55.30;;;;;;5052303;28;20029;-39
2022/11/04 09:00:45;;;;;;;7.80;1.80;;;21.10;55.40;;;;;;5052247;28;20029;-39
2022/11/04 09:03:11;;;;;;;4.55;1.98;;;21.10;56.00;;;;;;5051729;28;20032;-39
2022/11/04 09:05:43;;;;;;;4.10;1.63;;;21.10;55.40;;;;;;5041564;28;20017;-39
2022/11/04 09:08:10;;;;;;;5.40;1.83;;;21.10;55.50;;;;;;5052099;28;20404;-39
2022/11/04 09:10:40;;;;;;;7.05;2.40;;;21.10;55.50;;;;;;5051911;28;20025;-39
2022/11/04 09:13:06;;;;;;;8.73;1.83;;;21.10;55.50;;;;;;5053720;28;20107;-47
2022/11/04 09:15:32;;;;;;;9.68;2.70;;;21.10;55.60;;;;;;5052090;28;20024;-39
2022/11/04 09:17:57;;;;;;;4.68;1.80;;;21.10;55.60;;;;;;5052798;28;20381;-39
2022/11/04 09:20:23;;;;;;;3.35;1.27;;;21.10;55.60;;;;;;5049711;28;20028;-40
2022/11/04 09:22:49;;;;;;;6.05;1.52;;;21.10;55.70;;;;;;5049749;28;20047;-39
2022/11/04 09:25:15;;;;;;;6.13;1.42;;;21.10;55.70;;;;;;5050691;28;20074;-39
2022/11/04 09:27:41;;;;;;;5.78;2.05;;;21.10;55.70;;;;;;5052464;28;20028;-39
2022/11/04 09:30:07;;;;;;;5.35;1.60;;;21.10;55.80;;;;;;5041898;28;20033;-46
2022/11/04 09:32:32;;;;;;;5.00;1.30;;;21.10;55.80;;;;;;5051653;28;20049;-39
2022/11/04 09:34:58;;;;;;;5.28;1.60;;;21.20;56.00;;;;;;5052240;28;20035;-39
2022/11/04 09:37:23;;;;;;;4.18;2.17;;;21.10;56.00;;;;;;5049685;28;20090;-39
2022/11/04 09:39:49;;;;;;;8.93;1.77;;;21.10;56.00;;;;;;5041337;28;20450;-39
2022/11/04 09:42:24;;;;;;;4.65;1.20;;;21.10;56.10;;;;;;5051121;28;20113;-39
2022/11/04 09:44:58;;;;;;;2.55;1.27;;;21.20;56.20;;;;;;5051860;28;20023;-39
2022/11/04 09:47:24;;;;;;;5.13;1.85;;;21.20;56.20;;;;;;5051020;28;20531;-39
2022/11/04 09:49:57;;;;;;;2.83;0.90;;;21.20;56.20;;;;;;5051295;28;20033;-39
2022/11/04 09:52:26;;;;;;;4.65;2.05;;;21.20;56.20;;;;;;5051026;28;20045;-39
2022/11/04 09:55:05;;;;;;;3.75;1.27;;;21.20;56.30;;;;;;5043764;28;20053;-39
2022/11/04 09:57:31;;;;;;;10.82;1.60;;;21.20;56.30;;;;;;5039070;28;20036;-39
2022/11/04 09:59:58;;;;;;;4.00;1.30;;;21.20;56.40;;;;;;5051249;28;20094;-41
2022/11/04 10:02:33;;;;;;;3.72;1.83;;;21.20;56.40;;;;;;5050843;28;20370;-42
2022/11/04 10:05:29;;;;;;;4.25;1.55;;;21.20;56.40;;;;;;5051716;28;20025;-39
2022/11/04 10:08:08;;;;;;;5.25;1.40;;;21.20;56.40;;;;;;5051606;28;20397;-39
2022/11/04 10:11:00;;;;;;;6.65;2.08;;;21.20;56.40;;;;;;5050613;28;20039;-39
2022/11/04 10:13:49;;;;;;;5.88;1.40;;;21.20;56.50;;;;;;5035405;28;20025;-39
2022/11/04 10:16:18;;;;;;;2.97;1.20;;;21.20;56.50;;;;;;5046220;28;20063;-39
2022/11/04 10:18:44;;;;;;;9.90;2.10;;;21.10;56.70;;;;;;5040221;28;20030;-39
2022/11/04 10:21:34;;;;;;;3.92;1.10;;;21.20;56.60;;;;;;5051770;28;20035;-40
2022/11/04 10:24:17;;;;;;;2.50;1.10;;;21.20;56.60;;;;;;5046559;28;20031;-39
2022/11/04 10:26:56;;;;;;;5.80;1.15;;;21.10;56.50;;;;;;5059448;28;20365;-39
2022/11/04 10:29:27;;;;;;;2.42;1.10;;;21.10;56.60;;;;;;5049526;28;20029;-39
2022/11/04 10:31:56;;;;;;;5.60;1.75;;;21.10;56.60;;;;;;5051652;28;20021;-39
2022/11/04 10:34:29;;;;;;;6.25;1.17;;;21.10;56.60;;;;;;5050228;28;20053;-39
2022/11/04 10:36:56;;;;;;;9.07;1.48;;;21.10;56.60;;;;;;5051640;28;20021;-39
2022/11/04 10:39:35;;;;;;;3.38;1.60;;;21.10;56.60;;;;;;5050414;28;20025;-39
2022/11/04 10:42:02;;;;;;;4.63;1.70;;;21.20;56.60;;;;;;5051340;28;20013;-39
2022/11/04 10:44:34;;;;;;;2.72;1.10;;;21.10;56.60;;;;;;5047885;28;20106;-39
2022/11/04 10:47:41;;;;;;;4.22;1.15;;;21.20;56.60;;;;;;5050431;28;20477;-39
2022/11/04 10:50:25;;;;;;;2.30;0.98;;;21.20;56.60;;;;;;5050429;28;20549;-46
2022/11/04 10:52:56;;;;;;;5.68;1.02;;;21.20;56.70;;;;;;5039466;28;20096;-39
2022/11/04 10:55:41;;;;;;;3.15;1.30;;;21.10;56.60;;;;;;5050048;28;20101;-39
2022/11/04 10:58:24;;;;;;;3.03;1.27;;;21.20;56.60;;;;;;5050533;28;20120;-46
2022/11/04 11:00:50;;;;;;;4.00;1.40;;;21.10;56.60;;;;;;5051008;28;20020;-39
2022/11/04 11:03:33;;;;;;;3.28;1.27;;;21.10;56.60;;;;;;5042198;28;20071;-39
2022/11/04 11:06:29;;;;;;;3.25;0.95;;;21.20;56.60;;;;;;5040542;28;20021;-39
2022/11/04 11:09:20;;;;;;;2.15;0.95;;;21.20;56.40;;;;;;5051785;28;20108;-38
2022/11/04 11:11:50;;;;;;;8.25;1.73;;;21.20;56.30;;;;;;5055133;28;20411;-38
2022/11/04 11:14:32;;;;;;;5.38;1.40;;;21.20;56.00;;;;;;5053075;28;20025;-39
2022/11/04 11:17:13;;;;;;;14.20;7.22;;;21.20;56.10;;;;;;5059275;28;20029;-38
2022/11/04 11:19:55;;;;;;;21.52;12.98;;;21.20;56.10;;;;;;5051848;28;20024;-38
2022/11/04 11:22:30;;;;;;;29.88;17.85;;;21.20;56.40;;;;;;5051531;28;20048;-41
2022/11/04 11:25:47;;;;;;;33.42;20.02;;;21.20;56.60;;;;;;5054121;28;20401;-38
2022/11/04 11:28:22;;;;;;;36.25;20.17;;;21.20;56.70;;;;;;5019704;28;20091;-39
2022/11/04 11:30:48;;;;;;;26.17;15.93;;;21.20;56.70;;;;;;5054270;28;20108;-38
2022/11/04 11:33:16;;;;;;;30.00;15.52;;;21.20;56.60;;;;;;5053608;28;20116;-39
2022/11/04 11:35:52;;;;;;;23.88;15.13;;;21.20;56.50;;;;;;5054019;28;20405;-39
2022/11/04 11:38:24;;;;;;;25.88;15.85;;;21.20;56.60;;;;;;5043061;28;20021;-39
2022/11/04 11:40:53;;;;;;;22.25;14.88;;;21.20;56.60;;;;;;5052343;28;20351;-38
2022/11/04 11:43:28;;;;;;;24.83;15.55;;;21.20;56.60;;;;;;5053126;28;20032;-39
2022/11/04 11:45:56;;;;;;;21.35;13.55;;;21.20;56.60;;;;;;5047148;28;20033;-39
2022/11/04 11:48:42;;;;;;;19.67;13.10;;;21.20;56.60;;;;;;5040029;28;20083;-39
2022/11/04 11:51:13;;;;;;;19.48;11.32;;;21.20;56.60;;;;;;5042848;28;20078;-45
2022/11/04 11:53:57;;;;;;;18.50;11.82;;;21.20;56.60;;;;;;5051349;28;20025;-39
2022/11/04 11:56:25;;;;;;;17.60;11.05;;;21.20;56.60;;;;;;5045837;28;20025;-38
2022/11/04 11:59:04;;;;;;;18.05;11.40;;;21.20;56.60;;;;;;5054005;28;20024;-39
2022/11/04 12:02:07;;;;;;;19.77;10.90;;;21.20;56.60;;;;;;5053230;28;20075;-38
2022/11/04 12:04:34;;;;;;;17.58;10.57;;;21.20;56.60;;;;;;5009786;28;20048;-39
2022/11/04 12:07:18;;;;;;;13.70;10.07;;;21.20;56.60;;;;;;5054069;28;20033;-39
2022/11/04 12:09:59;;;;;;;12.82;9.88;;;21.20;56.60;;;;;;5051674;28;20113;-39
2022/11/04 12:12:49;;;;;;;18.80;9.55;;;21.20;57.20;;;;;;5052510;28;20404;-39
2022/11/04 12:15:30;;;;;;;15.13;9.88;;;21.20;56.60;;;;;;5060819;28;20028;-39
2022/11/04 12:18:23;;;;;;;12.65;8.75;;;21.20;56.60;;;;;;5041247;28;20021;-39
2022/11/04 12:21:08;;;;;;;15.18;8.93;;;21.20;56.60;;;;;;5050693;28;20147;-39
2022/11/04 12:24:00;;;;;;;13.18;9.10;;;21.20;56.60;;;;;;5059397;28;20033;-38
2022/11/04 12:26:52;;;;;;;12.65;7.57;;;21.20;56.60;;;;;;5046935;28;20036;-39
2022/11/04 12:29:28;;;;;;;13.30;8.00;;;21.20;56.60;;;;;;5042911;28;20039;-41
2022/11/04 12:32:13;;;;;;;10.15;7.32;;;21.20;56.60;;;;;;5057932;28;20025;-39
2022/11/04 12:35:15;;;;;;;12.80;8.55;;;21.20;56.60;;;;;;5052981;28;20462;-40
2022/11/04 12:37:51;;;;;;;14.02;7.93;;;21.20;56.60;;;;;;5053724;28;20369;-38
2022/11/04 12:40:26;;;;;;;13.13;8.00;;;21.20;57.30;;;;;;5021399;28;20401;-39
2022/11/04 12:43:04;;;;;;;12.10;7.47;;;21.20;56.60;;;;;;5054380;28;20136;-39
2022/11/04 12:45:51;;;;;;;13.20;7.55;;;21.20;56.70;;;;;;5049520;28;20101;-38
2022/11/04 12:48:30;;;;;;;12.43;7.45;;;21.20;56.60;;;;;;5045494;28;20036;-39
2022/11/04 12:51:13;;;;;;;10.65;6.50;;;21.20;56.70;;;;;;5052388;28;20033;-39
2022/11/04 12:53:41;;;;;;;9.15;6.28;;;21.20;56.60;;;;;;5053409;28;20079;-38
2022/11/04 12:56:36;;;;;;;11.73;6.43;;;21.20;56.80;;;;;;5050686;28;20021;-46
2022/11/04 12:59:30;;;;;;;9.48;6.05;;;21.20;57.10;;;;;;5039487;28;20049;-38
2022/11/04 13:02:02;;;;;;;10.20;4.85;;;21.20;57.00;;;;;;5053493;28;20474;-38
2022/11/04 13:04:34;;;;;;;6.65;4.22;;;21.20;56.30;;;;;;5051591;28;20068;-37
2022/11/04 13:07:04;;;;;;;9.40;4.72;;;21.20;56.30;;;;;;5052831;28;20021;-39
2022/11/04 13:09:38;;;;;;;9.27;3.85;;;21.20;55.90;;;;;;5051404;28;20041;-38
2022/11/04 13:12:30;;;;;;;7.30;4.28;;;21.30;56.10;;;;;;5052949;28;20016;-38
2022/11/04 13:15:01;;;;;;;12.10;4.40;;;21.50;55.50;;;;;;5046035;28;20054;-38
2022/11/04 13:17:31;;;;;;;6.72;3.45;;;21.50;55.70;;;;;;5045723;28;20023;-38
2022/11/04 13:20:25;;;;;;;8.02;3.65;;;21.50;55.30;;;;;;5042649;28;20052;-39
2022/11/04 13:22:52;;;;;;;14.27;3.97;;;21.40;55.80;;;;;;5049803;28;20028;-39
2022/11/04 13:25:33;;;;;;;9.02;3.40;;;21.40;57.60;;;;;;5052822;28;20024;-38
2022/11/04 13:28:00;;;;;;;8.53;3.67;;;21.40;57.20;;;;;;5053037;28;20474;-39
2022/11/04 13:30:32;;;;;;;28.05;3.47;;;21.40;57.90;;;;;;5032732;28;20119;-38
2022/11/04 13:32:58;;;;;;;;;;;21.60;57.80;;;;;;5050871;28;20045;-38
2022/11/04 13:35:38;;;;;;;13.60;3.58;;;21.60;57.50;;;;;;5050744;28;19995;-38
2022/11/04 13:38:13;;;;;;;5.93;2.40;;;21.50;59.60;;;;;;5051298;28;20086;-37
2022/11/04 13:41:27;;;;;;;4.80;2.25;;;21.50;59.70;;;;;;5051787;28;20032;-38
2022/11/04 13:43:58;;;;;;;3.85;1.95;;;21.40;59.20;;;;;;5035937;28;20036;-38